sensor_id;sensor_type;location;lat;lon;timestamp;temperature;humidity
11112;DHT22;5609;49.466;8.468;2022-08-19T00:02:00;22.10;1.00
11112;DHT22;5609;49.466;8.468;2022-08-19T00:04:30;22.10;1.00
11112;DHT22;5609;49.466;8.468;2022-08-19T00:06:58;22.10;1.00
11112;DHT22;5609;49.466;8.468;2022-08-19T00:09:26;22.20;1.00
11112;DHT22;5609;49.466;8.468;2022-08-19T00:11:56;22.20;1.00
11112;DHT22;5609;49.466;8.468;2022-08-19T00:14:24;22.10;1.00
11112;DHT22;5609;49.466;8.468;2022-08-19T00:16:53;22.20;1.00
11112;DHT22;5609;49.466;8.468;2022-08-19T00:19:21;22.20;1.00
11112;DHT22;5609;49.466;8.468;2022-08-19T00:21:48;22.20;1.00
11112;DHT22;5609;49.466;8.468;2022-08-19T00:24:15;22.20;1.00
11112;DHT22;5609;49.466;8.468;2022-08-19T00:26:43;22.20;1.00
11112;DHT22;5609;49.466;8.468;2022-08-19T00:29:12;22.10;1.00
11112;DHT22;5609;49.466;8.468;2022-08-19T00:31:39;22.10;1.00
11112;DHT22;5609;49.466;8.468;2022-08-19T00:34:08;22.00;1.00
11112;DHT22;5609;49.466;8.468;2022-08-19T00:36:36;21.90;1.00
11112;DHT22;5609;49.466;8.468;2022-08-19T00:39:04;22.00;1.00
11112;DHT22;5609;49.466;8.468;2022-08-19T00:41:30;22.00;1.00
11112;DHT22;5609;49.466;8.468;2022-08-19T00:44:00;22.00;1.00
11112;DHT22;5609;49.466;8.468;2022-08-19T00:46:28;21.90;1.00
11112;DHT22;5609;49.466;8.468;2022-08-19T00:48:56;22.00;1.00
11112;DHT22;5609;49.466;8.468;2022-08-19T00:51:25;22.00;1.00
11112;DHT22;5609;49.466;8.468;2022-08-19T00:53:55;22.00;1.00
11112;DHT22;5609;49.466;8.468;2022-08-19T00:56:23;22.00;1.00
11112;DHT22;5609;49.466;8.468;2022-08-19T00:58:51;22.00;1.00
11112;DHT22;5609;49.466;8.468;2022-08-19T01:01:19;22.00;1.00
11112;DHT22;5609;49.466;8.468;2022-08-19T01:03:45;22.10;1.00
11112;DHT22;5609;49.466;8.468;2022-08-19T01:06:12;22.00;1.00
11112;DHT22;5609;49.466;8.468;2022-08-19T01:08:41;22.00;1.00
11112;DHT22;5609;49.466;8.468;2022-08-19T01:11:08;22.00;1.00
11112;DHT22;5609;49.466;8.468;2022-08-19T01:13:35;22.00;1.00
11112;DHT22;5609;49.466;8.468;2022-08-19T01:16:06;22.00;1.00
11112;DHT22;5609;49.466;8.468;2022-08-19T01:18:38;22.10;1.00
11112;DHT22;5609;49.466;8.468;2022-08-19T01:21:11;22.00;1.00
11112;DHT22;5609;49.466;8.468;2022-08-19T01:23:42;22.00;1.00
11112;DHT22;5609;49.466;8.468;2022-08-19T01:26:12;22.00;1.00
11112;DHT22;5609;49.466;8.468;2022-08-19T01:28:41;22.00;1.00
11112;DHT22;5609;49.466;8.468;2022-08-19T01:31:10;22.00;1.00
11112;DHT22;5609;49.466;8.468;2022-08-19T01:33:37;22.00;1.00
11112;DHT22;5609;49.466;8.468;2022-08-19T01:36:06;22.00;1.00
11112;DHT22;5609;49.466;8.468;2022-08-19T01:38:35;22.00;1.00
11112;DHT22;5609;49.466;8.468;2022-08-19T01:41:05;22.00;1.00
11112;DHT22;5609;49.466;8.468;2022-08-19T01:43:32;22.00;1.00
11112;DHT22;5609;49.466;8.468;2022-08-19T01:45:59;21.90;1.00
11112;DHT22;5609;49.466;8.468;2022-08-19T01:48:26;21.90;1.00
11112;DHT22;5609;49.466;8.468;2022-08-19T01:50:54;21.90;1.00
11112;DHT22;5609;49.466;8.468;2022-08-19T01:53:21;21.90;1.00
11112;DHT22;5609;49.466;8.468;2022-08-19T01:55:48;21.90;1.00
11112;DHT22;5609;49.466;8.468;2022-08-19T01:58:19;22.00;1.00
11112;DHT22;5609;49.466;8.468;2022-08-19T02:00:47;21.90;1.00
11112;DHT22;5609;49.466;8.468;2022-08-19T02:03:14;21.90;1.00
11112;DHT22;5609;49.466;8.468;2022-08-19T02:05:43;21.80;1.00
11112;DHT22;5609;49.466;8.468;2022-08-19T02:08:10;21.90;1.00
11112;DHT22;5609;49.466;8.468;2022-08-19T02:10:39;21.90;1.00
11112;DHT22;5609;49.466;8.468;2022-08-19T02:13:06;21.90;1.00
11112;DHT22;5609;49.466;8.468;2022-08-19T02:15:35;21.90;1.00
11112;DHT22;5609;49.466;8.468;2022-08-19T02:18:01;21.90;1.00
11112;DHT22;5609;49.466;8.468;2022-08-19T02:20:28;21.80;1.00
11112;DHT22;5609;49.466;8.468;2022-08-19T02:22:55;21.80;1.00
11112;DHT22;5609;49.466;8.468;2022-08-19T02:25:22;21.70;1.00
11112;DHT22;5609;49.466;8.468;2022-08-19T02:27:49;21.70;1.00
11112;DHT22;5609;49.466;8.468;2022-08-19T02:30:17;21.60;1.00
11112;DHT22;5609;49.466;8.468;2022-08-19T02:32:45;21.60;1.00
11112;DHT22;5609;49.466;8.468;2022-08-19T02:35:13;21.60;1.00
11112;DHT22;5609;49.466;8.468;2022-08-19T02:37:40;21.60;1.00
11112;DHT22;5609;49.466;8.468;2022-08-19T02:40:25;21.60;1.00
11112;DHT22;5609;49.466;8.468;2022-08-19T02:42:52;21.60;1.00
11112;DHT22;5609;49.466;8.468;2022-08-19T02:45:19;21.50;1.00
11112;DHT22;5609;49.466;8.468;2022-08-19T02:47:47;21.60;1.00
11112;DHT22;5609;49.466;8.468;2022-08-19T02:50:14;21.50;1.00
11112;DHT22;5609;49.466;8.468;2022-08-19T02:52:41;21.50;1.00
11112;DHT22;5609;49.466;8.468;2022-08-19T02:55:09;21.60;1.00
11112;DHT22;5609;49.466;8.468;2022-08-19T02:57:35;21.50;1.00
11112;DHT22;5609;49.466;8.468;2022-08-19T03:00:04;21.50;1.00
11112;DHT22;5609;49.466;8.468;2022-08-19T03:02:32;21.50;1.00
11112;DHT22;5609;49.466;8.468;2022-08-19T03:05:02;21.50;1.00
11112;DHT22;5609;49.466;8.468;2022-08-19T03:07:29;21.50;1.00
11112;DHT22;5609;49.466;8.468;2022-08-19T03:09:56;21.50;1.00
11112;DHT22;5609;49.466;8.468;2022-08-19T03:12:22;21.40;1.00
11112;DHT22;5609;49.466;8.468;2022-08-19T03:14:49;21.40;1.00
11112;DHT22;5609;49.466;8.468;2022-08-19T03:17:17;21.40;1.00
11112;DHT22;5609;49.466;8.468;2022-08-19T03:19:44;21.40;1.00
11112;DHT22;5609;49.466;8.468;2022-08-19T03:22:12;21.40;1.00
11112;DHT22;5609;49.466;8.468;2022-08-19T03:24:39;21.40;1.00
11112;DHT22;5609;49.466;8.468;2022-08-19T03:27:06;21.40;1.00
11112;DHT22;5609;49.466;8.468;2022-08-19T03:29:33;21.40;1.00
11112;DHT22;5609;49.466;8.468;2022-08-19T03:32:04;21.40;1.00
11112;DHT22;5609;49.466;8.468;2022-08-19T03:34:33;21.30;1.00
11112;DHT22;5609;49.466;8.468;2022-08-19T03:37:06;21.30;1.00
11112;DHT22;5609;49.466;8.468;2022-08-19T03:39:36;21.30;1.00
11112;DHT22;5609;49.466;8.468;2022-08-19T03:42:04;21.30;1.00
11112;DHT22;5609;49.466;8.468;2022-08-19T03:44:31;21.30;1.00
11112;DHT22;5609;49.466;8.468;2022-08-19T03:46:59;21.30;1.00
11112;DHT22;5609;49.466;8.468;2022-08-19T03:49:29;21.30;1.00
11112;DHT22;5609;49.466;8.468;2022-08-19T03:51:58;21.20;1.00
11112;DHT22;5609;49.466;8.468;2022-08-19T03:54:27;21.20;1.00
11112;DHT22;5609;49.466;8.468;2022-08-19T03:56:56;21.20;1.00
11112;DHT22;5609;49.466;8.468;2022-08-19T03:59:27;21.20;1.00
11112;DHT22;5609;49.466;8.468;2022-08-19T04:01:55;21.10;1.00
11112;DHT22;5609;49.466;8.468;2022-08-19T04:04:23;21.00;1.00
11112;DHT22;5609;49.466;8.468;2022-08-19T04:06:50;21.10;1.00
11112;DHT22;5609;49.466;8.468;2022-08-19T04:09:18;21.00;1.00
11112;DHT22;5609;49.466;8.468;2022-08-19T04:11:49;21.00;1.00
11112;DHT22;5609;49.466;8.468;2022-08-19T04:14:22;21.00;1.00
11112;DHT22;5609;49.466;8.468;2022-08-19T04:16:50;21.00;1.00
11112;DHT22;5609;49.466;8.468;2022-08-19T04:19:18;21.00;1.00
11112;DHT22;5609;49.466;8.468;2022-08-19T04:21:48;21.10;1.00
11112;DHT22;5609;49.466;8.468;2022-08-19T04:24:16;21.00;1.00
11112;DHT22;5609;49.466;8.468;2022-08-19T04:26:43;21.10;1.00
11112;DHT22;5609;49.466;8.468;2022-08-19T04:29:13;21.00;1.00
11112;DHT22;5609;49.466;8.468;2022-08-19T04:31:42;21.10;1.00
11112;DHT22;5609;49.466;8.468;2022-08-19T04:34:11;21.10;1.00
11112;DHT22;5609;49.466;8.468;2022-08-19T04:36:41;21.20;1.00
11112;DHT22;5609;49.466;8.468;2022-08-19T04:39:13;21.20;1.00
11112;DHT22;5609;49.466;8.468;2022-08-19T04:41:40;21.20;1.00
11112;DHT22;5609;49.466;8.468;2022-08-19T04:44:25;21.20;1.00
11112;DHT22;5609;49.466;8.468;2022-08-19T04:46:53;21.20;1.00
11112;DHT22;5609;49.466;8.468;2022-08-19T04:49:22;21.30;1.00
11112;DHT22;5609;49.466;8.468;2022-08-19T04:51:50;21.30;1.00
11112;DHT22;5609;49.466;8.468;2022-08-19T04:54:21;21.30;1.00
11112;DHT22;5609;49.466;8.468;2022-08-19T04:56:49;21.40;1.00
11112;DHT22;5609;49.466;8.468;2022-08-19T04:59:17;21.30;1.00
11112;DHT22;5609;49.466;8.468;2022-08-19T05:01:46;21.30;1.00
11112;DHT22;5609;49.466;8.468;2022-08-19T05:04:18;21.40;1.00
11112;DHT22;5609;49.466;8.468;2022-08-19T05:06:46;21.40;1.00
11112;DHT22;5609;49.466;8.468;2022-08-19T05:09:13;21.40;1.00
11112;DHT22;5609;49.466;8.468;2022-08-19T05:11:41;21.40;1.00
11112;DHT22;5609;49.466;8.468;2022-08-19T05:14:09;21.50;1.00
11112;DHT22;5609;49.466;8.468;2022-08-19T05:16:38;21.50;1.00
11112;DHT22;5609;49.466;8.468;2022-08-19T05:19:05;21.50;1.00
11112;DHT22;5609;49.466;8.468;2022-08-19T05:21:51;21.60;1.00
11112;DHT22;5609;49.466;8.468;2022-08-19T05:24:36;21.70;1.00
11112;DHT22;5609;49.466;8.468;2022-08-19T05:27:03;21.70;1.00
11112;DHT22;5609;49.466;8.468;2022-08-19T05:29:31;21.70;1.00
11112;DHT22;5609;49.466;8.468;2022-08-19T05:32:00;21.80;1.00
11112;DHT22;5609;49.466;8.468;2022-08-19T05:34:27;22.00;1.00
11112;DHT22;5609;49.466;8.468;2022-08-19T05:36:57;22.00;1.00
11112;DHT22;5609;49.466;8.468;2022-08-19T05:39:26;22.00;1.00
11112;DHT22;5609;49.466;8.468;2022-08-19T05:41:56;22.00;1.00
11112;DHT22;5609;49.466;8.468;2022-08-19T05:44:24;22.00;1.00
11112;DHT22;5609;49.466;8.468;2022-08-19T05:46:51;22.10;1.00
11112;DHT22;5609;49.466;8.468;2022-08-19T05:49:20;22.10;1.00
11112;DHT22;5609;49.466;8.468;2022-08-19T05:51:47;22.10;1.00
11112;DHT22;5609;49.466;8.468;2022-08-19T05:54:16;22.10;1.00
11112;DHT22;5609;49.466;8.468;2022-08-19T05:56:43;22.20;1.00
11112;DHT22;5609;49.466;8.468;2022-08-19T05:59:14;22.30;1.00
11112;DHT22;5609;49.466;8.468;2022-08-19T06:01:43;22.40;1.00
11112;DHT22;5609;49.466;8.468;2022-08-19T06:04:11;22.40;1.00
11112;DHT22;5609;49.466;8.468;2022-08-19T06:06:40;22.40;1.00
11112;DHT22;5609;49.466;8.468;2022-08-19T06:09:07;22.50;1.00
11112;DHT22;5609;49.466;8.468;2022-08-19T06:11:38;22.50;1.00
11112;DHT22;5609;49.466;8.468;2022-08-19T06:14:08;22.50;1.00
11112;DHT22;5609;49.466;8.468;2022-08-19T06:16:36;22.50;1.00
11112;DHT22;5609;49.466;8.468;2022-08-19T06:19:05;22.60;1.00
11112;DHT22;5609;49.466;8.468;2022-08-19T06:21:34;22.60;1.00
11112;DHT22;5609;49.466;8.468;2022-08-19T06:24:03;22.70;1.00
11112;DHT22;5609;49.466;8.468;2022-08-19T06:26:30;22.70;1.00
11112;DHT22;5609;49.466;8.468;2022-08-19T06:28:59;22.80;1.00
11112;DHT22;5609;49.466;8.468;2022-08-19T06:31:29;22.80;1.00
11112;DHT22;5609;49.466;8.468;2022-08-19T06:34:00;22.90;1.00
11112;DHT22;5609;49.466;8.468;2022-08-19T06:36:30;23.00;1.00
11112;DHT22;5609;49.466;8.468;2022-08-19T06:38:59;23.00;1.00
11112;DHT22;5609;49.466;8.468;2022-08-19T06:41:27;23.00;1.00
11112;DHT22;5609;49.466;8.468;2022-08-19T06:43:55;23.10;1.00
11112;DHT22;5609;49.466;8.468;2022-08-19T06:46:23;23.10;1.00
11112;DHT22;5609;49.466;8.468;2022-08-19T06:48:51;23.10;1.00
11112;DHT22;5609;49.466;8.468;2022-08-19T06:51:20;23.10;1.00
11112;DHT22;5609;49.466;8.468;2022-08-19T06:53:48;23.20;1.00
11112;DHT22;5609;49.466;8.468;2022-08-19T06:56:17;23.20;1.00
11112;DHT22;5609;49.466;8.468;2022-08-19T06:58:45;23.20;1.00
11112;DHT22;5609;49.466;8.468;2022-08-19T07:01:12;23.00;1.00
11112;DHT22;5609;49.466;8.468;2022-08-19T07:03:40;23.20;1.00
11112;DHT22;5609;49.466;8.468;2022-08-19T07:06:10;23.20;1.00
11112;DHT22;5609;49.466;8.468;2022-08-19T07:08:38;23.20;1.00
11112;DHT22;5609;49.466;8.468;2022-08-19T07:11:06;23.30;1.00
11112;DHT22;5609;49.466;8.468;2022-08-19T07:13:33;23.20;1.00
11112;DHT22;5609;49.466;8.468;2022-08-19T07:16:04;23.10;1.00
11112;DHT22;5609;49.466;8.468;2022-08-19T07:18:31;23.20;1.00
11112;DHT22;5609;49.466;8.468;2022-08-19T07:21:04;23.20;1.00
11112;DHT22;5609;49.466;8.468;2022-08-19T07:23:31;23.30;1.00
11112;DHT22;5609;49.466;8.468;2022-08-19T07:26:03;23.40;1.00
11112;DHT22;5609;49.466;8.468;2022-08-19T07:28:30;23.50;1.00
11112;DHT22;5609;49.466;8.468;2022-08-19T07:30:57;23.60;1.00
11112;DHT22;5609;49.466;8.468;2022-08-19T07:33:24;23.70;1.00
11112;DHT22;5609;49.466;8.468;2022-08-19T07:35:52;23.90;1.00
11112;DHT22;5609;49.466;8.468;2022-08-19T07:38:21;24.00;1.00
11112;DHT22;5609;49.466;8.468;2022-08-19T07:40:48;24.10;1.00
11112;DHT22;5609;49.466;8.468;2022-08-19T07:43:16;24.10;1.00
11112;DHT22;5609;49.466;8.468;2022-08-19T07:45:50;24.30;1.00
11112;DHT22;5609;49.466;8.468;2022-08-19T07:48:18;24.30;1.00
11112;DHT22;5609;49.466;8.468;2022-08-19T07:50:45;24.30;1.00
11112;DHT22;5609;49.466;8.468;2022-08-19T07:53:13;24.40;1.00
11112;DHT22;5609;49.466;8.468;2022-08-19T07:55:42;24.30;1.00
11112;DHT22;5609;49.466;8.468;2022-08-19T07:58:09;24.40;1.00
11112;DHT22;5609;49.466;8.468;2022-08-19T08:00:36;24.50;1.00
11112;DHT22;5609;49.466;8.468;2022-08-19T08:03:03;24.70;1.00
11112;DHT22;5609;49.466;8.468;2022-08-19T08:05:30;24.80;1.00
11112;DHT22;5609;49.466;8.468;2022-08-19T08:08:14;25.00;99.90
11112;DHT22;5609;49.466;8.468;2022-08-19T08:11:00;25.10;99.90
11112;DHT22;5609;49.466;8.468;2022-08-19T08:13:27;24.90;99.90
11112;DHT22;5609;49.466;8.468;2022-08-19T08:15:54;24.80;99.90
11112;DHT22;5609;49.466;8.468;2022-08-19T08:18:21;24.60;99.90
11112;DHT22;5609;49.466;8.468;2022-08-19T08:20:47;24.70;1.00
11112;DHT22;5609;49.466;8.468;2022-08-19T08:23:14;24.70;99.90
11112;DHT22;5609;49.466;8.468;2022-08-19T08:25:52;24.80;99.90
11112;DHT22;5609;49.466;8.468;2022-08-19T08:28:22;24.80;99.90
11112;DHT22;5609;49.466;8.468;2022-08-19T08:30:50;24.80;99.90
11112;DHT22;5609;49.466;8.468;2022-08-19T08:33:18;25.00;99.90
11112;DHT22;5609;49.466;8.468;2022-08-19T08:35:47;24.90;99.90
11112;DHT22;5609;49.466;8.468;2022-08-19T08:38:14;25.00;99.90
11112;DHT22;5609;49.466;8.468;2022-08-19T08:40:45;25.20;99.90
11112;DHT22;5609;49.466;8.468;2022-08-19T08:43:26;25.50;1.00
11112;DHT22;5609;49.466;8.468;2022-08-19T08:45:59;25.60;1.00
11112;DHT22;5609;49.466;8.468;2022-08-19T09:01:11;25.80;99.90
11112;DHT22;5609;49.466;8.468;2022-08-19T09:03:40;27.00;1.00
11112;DHT22;5609;49.466;8.468;2022-08-19T09:06:13;27.10;1.00
11112;DHT22;5609;49.466;8.468;2022-08-19T09:08:47;27.20;1.00
11112;DHT22;5609;49.466;8.468;2022-08-19T09:11:21;27.20;1.00
11112;DHT22;5609;49.466;8.468;2022-08-19T09:13:59;27.20;1.00
11112;DHT22;5609;49.466;8.468;2022-08-19T09:16:30;27.20;1.00
11112;DHT22;5609;49.466;8.468;2022-08-19T09:19:03;27.20;99.90
11112;DHT22;5609;49.466;8.468;2022-08-19T09:21:30;27.30;1.00
11112;DHT22;5609;49.466;8.468;2022-08-19T09:23:57;27.30;3.80
11112;DHT22;5609;49.466;8.468;2022-08-19T09:26:25;27.20;1.00
11112;DHT22;5609;49.466;8.468;2022-08-19T09:28:54;27.10;1.00
11112;DHT22;5609;49.466;8.468;2022-08-19T09:31:23;27.40;1.00
11112;DHT22;5609;49.466;8.468;2022-08-19T09:33:52;27.60;1.00
11112;DHT22;5609;49.466;8.468;2022-08-19T09:36:23;27.50;99.90
11112;DHT22;5609;49.466;8.468;2022-08-19T09:38:51;27.20;1.00
11112;DHT22;5609;49.466;8.468;2022-08-19T09:41:20;27.30;17.20
11112;DHT22;5609;49.466;8.468;2022-08-19T09:43:51;27.30;1.00
11112;DHT22;5609;49.466;8.468;2022-08-19T09:46:20;27.50;1.00
11112;DHT22;5609;49.466;8.468;2022-08-19T09:48:48;27.30;1.00
11112;DHT22;5609;49.466;8.468;2022-08-19T09:51:17;27.10;99.90
11112;DHT22;5609;49.466;8.468;2022-08-19T09:53:46;27.10;99.90
11112;DHT22;5609;49.466;8.468;2022-08-19T09:56:16;27.10;99.90
11112;DHT22;5609;49.466;8.468;2022-08-19T09:58:43;27.40;99.90
11112;DHT22;5609;49.466;8.468;2022-08-19T10:01:16;27.40;1.00
11112;DHT22;5609;49.466;8.468;2022-08-19T10:03:47;27.50;1.00
11112;DHT22;5609;49.466;8.468;2022-08-19T10:06:15;27.60;99.90
11112;DHT22;5609;49.466;8.468;2022-08-19T10:08:42;27.90;85.20
11112;DHT22;5609;49.466;8.468;2022-08-19T10:11:09;28.20;1.00
11112;DHT22;5609;49.466;8.468;2022-08-19T10:13:36;28.10;1.00
11112;DHT22;5609;49.466;8.468;2022-08-19T10:16:06;28.10;1.00
11112;DHT22;5609;49.466;8.468;2022-08-19T10:18:34;28.00;1.00
11112;DHT22;5609;49.466;8.468;2022-08-19T10:21:09;28.00;1.00
11112;DHT22;5609;49.466;8.468;2022-08-19T10:23:37;27.80;1.00
11112;DHT22;5609;49.466;8.468;2022-08-19T10:26:05;27.90;1.00
11112;DHT22;5609;49.466;8.468;2022-08-19T10:28:33;28.30;99.90
11112;DHT22;5609;49.466;8.468;2022-08-19T10:33:34;28.60;99.90
11112;DHT22;5609;49.466;8.468;2022-08-19T10:36:02;29.40;50.90
11112;DHT22;5609;49.466;8.468;2022-08-19T10:38:31;29.50;99.90
11112;DHT22;5609;49.466;8.468;2022-08-19T10:41:07;29.00;86.50
11112;DHT22;5609;49.466;8.468;2022-08-19T10:43:33;28.50;99.90
11112;DHT22;5609;49.466;8.468;2022-08-19T10:46:04;28.30;1.00
11112;DHT22;5609;49.466;8.468;2022-08-19T10:48:31;28.10;1.00
11112;DHT22;5609;49.466;8.468;2022-08-19T10:50:58;28.10;1.00
11112;DHT22;5609;49.466;8.468;2022-08-19T10:53:43;28.10;99.90
11112;DHT22;5609;49.466;8.468;2022-08-19T10:56:10;28.20;99.90
11112;DHT22;5609;49.466;8.468;2022-08-19T10:58:54;28.10;1.00
11112;DHT22;5609;49.466;8.468;2022-08-19T11:01:23;28.10;99.90
11112;DHT22;5609;49.466;8.468;2022-08-19T11:06:18;27.80;1.00
11112;DHT22;5609;49.466;8.468;2022-08-19T11:08:47;27.50;1.00
11112;DHT22;5609;49.466;8.468;2022-08-19T11:11:13;27.50;1.00
11112;DHT22;5609;49.466;8.468;2022-08-19T11:13:41;27.90;99.90
11112;DHT22;5609;49.466;8.468;2022-08-19T11:16:10;28.40;99.90
11112;DHT22;5609;49.466;8.468;2022-08-19T11:18:41;28.80;16.50
11112;DHT22;5609;49.466;8.468;2022-08-19T11:21:11;29.00;1.00
11112;DHT22;5609;49.466;8.468;2022-08-19T11:23:39;29.00;1.00
11112;DHT22;5609;49.466;8.468;2022-08-19T11:26:07;29.20;1.00
11112;DHT22;5609;49.466;8.468;2022-08-19T11:28:34;29.50;1.00
11112;DHT22;5609;49.466;8.468;2022-08-19T11:31:01;29.60;1.00
11112;DHT22;5609;49.466;8.468;2022-08-19T11:33:29;30.00;1.00
11112;DHT22;5609;49.466;8.468;2022-08-19T11:35:57;30.00;1.00
11112;DHT22;5609;49.466;8.468;2022-08-19T11:38:24;30.10;1.00
11112;DHT22;5609;49.466;8.468;2022-08-19T11:40:55;29.90;1.00
11112;DHT22;5609;49.466;8.468;2022-08-19T11:43:24;29.40;1.00
11112;DHT22;5609;49.466;8.468;2022-08-19T11:45:52;29.10;1.00
11112;DHT22;5609;49.466;8.468;2022-08-19T11:48:19;29.20;1.00
11112;DHT22;5609;49.466;8.468;2022-08-19T11:50:47;29.70;1.00
11112;DHT22;5609;49.466;8.468;2022-08-19T11:53:14;30.20;1.00
11112;DHT22;5609;49.466;8.468;2022-08-19T11:55:41;30.60;1.00
11112;DHT22;5609;49.466;8.468;2022-08-19T11:58:10;30.70;99.90
11112;DHT22;5609;49.466;8.468;2022-08-19T12:00:39;30.70;99.90
11112;DHT22;5609;49.466;8.468;2022-08-19T12:03:07;31.00;99.90
11112;DHT22;5609;49.466;8.468;2022-08-19T12:05:35;31.10;99.90
11112;DHT22;5609;49.466;8.468;2022-08-19T12:08:03;31.20;99.90
11112;DHT22;5609;49.466;8.468;2022-08-19T12:10:30;31.20;99.90
11112;DHT22;5609;49.466;8.468;2022-08-19T12:12:57;31.40;99.90
11112;DHT22;5609;49.466;8.468;2022-08-19T12:20:22;31.90;99.90
11112;DHT22;5609;49.466;8.468;2022-08-19T12:22:49;32.20;99.90
11112;DHT22;5609;49.466;8.468;2022-08-19T12:25:17;31.90;99.90
11112;DHT22;5609;49.466;8.468;2022-08-19T12:27:44;31.80;99.90
11112;DHT22;5609;49.466;8.468;2022-08-19T12:30:12;32.10;99.90
11112;DHT22;5609;49.466;8.468;2022-08-19T12:32:40;31.80;99.90
11112;DHT22;5609;49.466;8.468;2022-08-19T12:35:09;31.90;99.90
11112;DHT22;5609;49.466;8.468;2022-08-19T12:37:38;32.30;99.90
11112;DHT22;5609;49.466;8.468;2022-08-19T12:40:08;32.50;99.90
11112;DHT22;5609;49.466;8.468;2022-08-19T12:42:37;32.80;99.90
11112;DHT22;5609;49.466;8.468;2022-08-19T12:45:08;33.10;99.90
11112;DHT22;5609;49.466;8.468;2022-08-19T12:47:36;33.10;99.90
11112;DHT22;5609;49.466;8.468;2022-08-19T12:50:04;32.80;99.90
11112;DHT22;5609;49.466;8.468;2022-08-19T12:52:36;32.80;99.90
11112;DHT22;5609;49.466;8.468;2022-08-19T12:55:05;33.00;99.90
11112;DHT22;5609;49.466;8.468;2022-08-19T12:57:32;32.90;99.90
11112;DHT22;5609;49.466;8.468;2022-08-19T13:00:03;33.20;99.90
11112;DHT22;5609;49.466;8.468;2022-08-19T13:02:32;33.50;99.90
11112;DHT22;5609;49.466;8.468;2022-08-19T13:27:09;33.90;99.90
11112;DHT22;5609;49.466;8.468;2022-08-19T13:29:36;34.00;56.30
11112;DHT22;5609;49.466;8.468;2022-08-19T13:40:10;33.80;60.30
11112;DHT22;5609;49.466;8.468;2022-08-19T13:42:42;34.90;58.30
11112;DHT22;5609;49.466;8.468;2022-08-19T13:45:11;35.60;49.50
11112;DHT22;5609;49.466;8.468;2022-08-19T13:47:38;35.80;42.00
11112;DHT22;5609;49.466;8.468;2022-08-19T13:50:10;36.10;36.50
11112;DHT22;5609;49.466;8.468;2022-08-19T13:52:37;35.90;32.80
11112;DHT22;5609;49.466;8.468;2022-08-19T13:55:05;35.20;33.30
11112;DHT22;5609;49.466;8.468;2022-08-19T13:57:33;34.80;35.20
11112;DHT22;5609;49.466;8.468;2022-08-19T14:00:04;34.80;37.10
11112;DHT22;5609;49.466;8.468;2022-08-19T14:02:32;34.80;34.30
11112;DHT22;5609;49.466;8.468;2022-08-19T14:04:58;35.60;29.50
11112;DHT22;5609;49.466;8.468;2022-08-19T14:07:25;36.30;27.10
11112;DHT22;5609;49.466;8.468;2022-08-19T14:09:52;36.40;18.90
11112;DHT22;5609;49.466;8.468;2022-08-19T14:12:21;36.30;18.70
11112;DHT22;5609;49.466;8.468;2022-08-19T14:14:49;36.20;16.10
11112;DHT22;5609;49.466;8.468;2022-08-19T14:17:17;35.80;17.10
11112;DHT22;5609;49.466;8.468;2022-08-19T14:19:44;35.90;15.90
11112;DHT22;5609;49.466;8.468;2022-08-19T14:22:10;36.00;14.90
11112;DHT22;5609;49.466;8.468;2022-08-19T14:24:37;36.50;12.60
11112;DHT22;5609;49.466;8.468;2022-08-19T14:27:05;36.70;9.30
11112;DHT22;5609;49.466;8.468;2022-08-19T14:29:32;37.10;6.10
11112;DHT22;5609;49.466;8.468;2022-08-19T14:31:59;37.50;4.30
11112;DHT22;5609;49.466;8.468;2022-08-19T14:34:27;37.50;3.80
11112;DHT22;5609;49.466;8.468;2022-08-19T14:36:57;37.60;1.70
11112;DHT22;5609;49.466;8.468;2022-08-19T14:39:23;38.10;1.00
11112;DHT22;5609;49.466;8.468;2022-08-19T14:41:50;38.20;1.00
11112;DHT22;5609;49.466;8.468;2022-08-19T14:44:17;38.20;1.00
11112;DHT22;5609;49.466;8.468;2022-08-19T14:49:12;38.50;1.00
11112;DHT22;5609;49.466;8.468;2022-08-19T14:51:40;38.40;1.00
11112;DHT22;5609;49.466;8.468;2022-08-19T14:54:07;37.70;1.00
11112;DHT22;5609;49.466;8.468;2022-08-19T14:56:34;37.60;1.00
11112;DHT22;5609;49.466;8.468;2022-08-19T14:59:00;37.70;1.00
11112;DHT22;5609;49.466;8.468;2022-08-19T15:01:27;37.10;1.00
11112;DHT22;5609;49.466;8.468;2022-08-19T15:03:54;37.20;1.00
11112;DHT22;5609;49.466;8.468;2022-08-19T15:06:22;37.50;1.00
11112;DHT22;5609;49.466;8.468;2022-08-19T15:08:50;37.80;1.00
11112;DHT22;5609;49.466;8.468;2022-08-19T15:11:20;37.10;1.00
11112;DHT22;5609;49.466;8.468;2022-08-19T15:13:48;36.80;1.00
11112;DHT22;5609;49.466;8.468;2022-08-19T15:16:15;36.60;1.00
11112;DHT22;5609;49.466;8.468;2022-08-19T15:18:43;36.60;1.00
11112;DHT22;5609;49.466;8.468;2022-08-19T15:21:11;36.00;1.00
11112;DHT22;5609;49.466;8.468;2022-08-19T15:23:38;35.60;1.00
11112;DHT22;5609;49.466;8.468;2022-08-19T15:26:07;35.10;1.00
11112;DHT22;5609;49.466;8.468;2022-08-19T15:28:34;35.80;1.00
11112;DHT22;5609;49.466;8.468;2022-08-19T15:31:01;35.90;1.00
11112;DHT22;5609;49.466;8.468;2022-08-19T15:33:30;35.60;1.00
11112;DHT22;5609;49.466;8.468;2022-08-19T15:35:56;35.70;1.00
11112;DHT22;5609;49.466;8.468;2022-08-19T15:38:24;36.00;1.00
11112;DHT22;5609;49.466;8.468;2022-08-19T15:40:52;35.70;1.00
11112;DHT22;5609;49.466;8.468;2022-08-19T15:43:41;35.40;1.00
11112;DHT22;5609;49.466;8.468;2022-08-19T15:46:08;35.50;1.00
11112;DHT22;5609;49.466;8.468;2022-08-19T15:48:36;34.70;1.00
11112;DHT22;5609;49.466;8.468;2022-08-19T15:51:03;34.50;8.70
11112;DHT22;5609;49.466;8.468;2022-08-19T15:53:30;34.40;1.00
11112;DHT22;5609;49.466;8.468;2022-08-19T15:55:57;34.20;1.00
11112;DHT22;5609;49.466;8.468;2022-08-19T15:58:24;34.20;1.00
11112;DHT22;5609;49.466;8.468;2022-08-19T16:01:10;34.10;1.00
11112;DHT22;5609;49.466;8.468;2022-08-19T16:04:09;33.70;1.00
11112;DHT22;5609;49.466;8.468;2022-08-19T16:06:55;33.30;14.30
11112;DHT22;5609;49.466;8.468;2022-08-19T16:09:24;33.00;1.00
11112;DHT22;5609;49.466;8.468;2022-08-19T16:11:54;32.80;1.70
11112;DHT22;5609;49.466;8.468;2022-08-19T16:14:21;32.70;3.10
11112;DHT22;5609;49.466;8.468;2022-08-19T16:16:49;32.50;4.10
11112;DHT22;5609;49.466;8.468;2022-08-19T16:19:17;32.40;4.80
11112;DHT22;5609;49.466;8.468;2022-08-19T16:21:48;32.30;5.80
11112;DHT22;5609;49.466;8.468;2022-08-19T16:24:19;32.00;5.40
11112;DHT22;5609;49.466;8.468;2022-08-19T16:26:47;31.80;9.40
11112;DHT22;5609;49.466;8.468;2022-08-19T16:29:15;31.40;8.40
11112;DHT22;5609;49.466;8.468;2022-08-19T16:31:43;31.30;12.60
11112;DHT22;5609;49.466;8.468;2022-08-19T16:34:12;31.10;13.80
11112;DHT22;5609;49.466;8.468;2022-08-19T16:36:39;30.90;15.30
11112;DHT22;5609;49.466;8.468;2022-08-19T16:39:08;30.80;16.80
11112;DHT22;5609;49.466;8.468;2022-08-19T16:41:35;30.70;20.40
11112;DHT22;5609;49.466;8.468;2022-08-19T16:44:03;30.80;24.80
11112;DHT22;5609;49.466;8.468;2022-08-19T16:46:30;31.00;25.90
11112;DHT22;5609;49.466;8.468;2022-08-19T16:48:56;31.50;25.90
11112;DHT22;5609;49.466;8.468;2022-08-19T16:51:25;32.00;25.40
11112;DHT22;5609;49.466;8.468;2022-08-19T16:53:52;31.90;22.00
11112;DHT22;5609;49.466;8.468;2022-08-19T16:56:19;31.70;23.50
11112;DHT22;5609;49.466;8.468;2022-08-19T16:58:46;31.50;26.50
11112;DHT22;5609;49.466;8.468;2022-08-19T17:01:14;31.30;28.40
11112;DHT22;5609;49.466;8.468;2022-08-19T17:03:43;31.00;28.90